Forecasts are only available for sites displaying the forecast symbol.

Some water levels are actually in metres AHD (Australian Height Datum), click individual sites for more details.

Scroll for more >

River gauges, storages, and weirs in the Murray–Darling Basin

Type Locationsort descending River Water level Flow Volume Release Water temp Salinity Rainfall
River Gauge Albury (Union Bridge) Murray 1.04 m 26/05/2019 18:00 Not measured Not measured Not measured 13.6°C 26/05/2019 18:00 49.2 μS/cm 26/05/2019 18:00 Not measured Full data
River Gauge Balranald Murrumbidgee 1.01 m 26/05/2019 17:45 632 ML/Day 26/05/2019 17:45 Not measured Not measured 13.9°C 26/05/2019 17:45 214.8 μS/cm 26/05/2019 17:45 Not measured Full data
River Gauge Bandiana Kiewa 1.11 m 26/05/2019 17:45 622 ML/Day 26/05/2019 17:45 Not measured Not measured 11.3°C 26/05/2019 17:45 32.3 μS/cm 26/05/2019 17:45 Not measured Full data
River Gauge Barmah Choke Murray 1.5 m 26/05/2019 17:45 3132 ML/Day 26/05/2019 17:45 Not measured Not measured Not measured Not measured Not measured Full data
River Gauge Biggara Murray 0.41 m 26/05/2019 18:00 444 ML/Day 26/05/2019 18:00 Not measured Not measured 9.0°C 26/05/2019 18:00 64.4 μS/cm 26/05/2019 18:00 5.4 mm 26/05/2019 9:00 Full data
River Gauge Bringenbrong Bridge Murray 1.5 m 26/05/2019 18:00 3673 ML/Day 26/05/2019 18:00 Not measured Not measured Not measured Not measured Not measured Full data
River Gauge Burtundy Darling 0.5 m 26/05/2019 17:45 1 ML/Day 26/05/2019 17:45 Not measured Not measured 16.3°C 26/05/2019 17:45 7.3 μS/cm 9/04/2019 15:15 Not measured Full data
River Gauge Colemans Mitta 1 m 26/05/2019 18:15 291 ML/Day 26/05/2019 18:15 Not measured Not measured 9.7°C 26/05/2019 17:45 58.4 μS/cm 26/05/2019 17:45 Not measured Full data
River Gauge Colignan Murray 2.05 m 26/05/2019 17:45 7301 ML/Day 26/05/2019 17:45 Not measured Not measured 15.2°C 26/05/2019 17:45 81.9 μS/cm 26/05/2019 17:45 Not measured Full data
River Gauge Corowa Murray 1 m 26/05/2019 18:00 2950 ML/Day 26/05/2019 18:00 Not measured Not measured 13.7°C 26/05/2019 18:00 57.8 μS/cm 26/05/2019 18:00 Not measured Full data
Storage Dartmouth Dam Mitta 461.97 m 26/05/2019 18:15 Not measured 2471 GL 26/05/2019 18:15 Not measured Not measured Not measured Not measured Full data
River Gauge Doctors Point Murray 1.99 m 26/05/2019 18:00 4116 ML/Day 26/05/2019 18:00 Not measured Not measured 13.9°C 26/05/2019 18:00 54.0 μS/cm 26/05/2019 18:00 Not measured Full data
River Gauge Echuca Wharf Murray 86.59 m 7/05/2019 20:45 Not measured Not measured Not measured Not measured Not measured Not measured Full data
River Gauge Edward Escape Wakool 0.01 m 26/05/2019 17:45 4 ML/Day 26/05/2019 17:45 Not measured Not measured 14.7°C 26/05/2019 17:45 70.8 μS/cm 26/05/2019 17:45 Not measured Full data
River Gauge Edward River Offtake Murray 1.69 m 26/05/2019 17:45 651 ML/Day 26/05/2019 17:45 Not measured Not measured 14.1°C 26/05/2019 17:45 51.2 μS/cm 26/05/2019 17:45 Not measured Full data
Weirs Euston Weir Downstream Murray 43.31 m 26/05/2019 17:45 7392 ML/Day 26/05/2019 17:45 Not measured Not measured 14.9°C 26/05/2019 17:45 81.4 μS/cm 26/05/2019 17:45 Not measured Full data
Weirs Euston Weir Upstream Murray 47.44 m 26/05/2019 8:45 Not measured 35 GL 26/05/2019 7:45 Not measured Not measured Not measured 0.0 mm 21/02/2019 9:00 Full data
River Gauge Flow to South Australia Murray Not measured Not measured Not measured 4304.5 ML/d24/05/2019 7:45 Not measured Not measured Not measured Full data
River Gauge Frenchman Creek Murray 27.17 m 24/05/2019 7:45 Not measured Not measured 4473.0 ML/d24/05/2019 7:45 Not measured Not measured Not measured Full data
River Gauge Gulpa Creek Offtake Murray 2.08 m 26/05/2019 17:45 189 ML/Day 26/05/2019 17:45 Not measured Not measured Not measured Not measured Not measured Full data
River Gauge Hinnomunjie Mitta 0.72 m 26/05/2019 17:45 519 ML/Day 26/05/2019 17:45 Not measured Not measured 7.9°C 26/05/2019 17:45 29.8 μS/cm 26/05/2019 17:45 3.2 mm 26/05/2019 9:00 Full data
Storage Hume Dam Murray 173.05 m 26/05/2019 18:00 Not measured 462 GL 26/05/2019 18:00 2504.0 ML/d26/05/2019 8:00 Not measured Not measured 0.6 mm 26/05/2019 9:00 Full data
River Gauge Jingellic Murray 1.57 m 26/05/2019 17:45 3491 ML/Day 26/05/2019 17:45 Not measured Not measured 11.2°C 26/05/2019 17:45 39.8 μS/cm 26/05/2019 17:45 2.6 mm 26/05/2019 9:00 Full data
River Gauge Kerang Loddon 0.42 m 26/05/2019 17:45 274 ML/Day 26/05/2019 17:45 Not measured Not measured 13.7°C 26/05/2019 17:45 92.5 μS/cm 26/05/2019 17:45 Not measured Full data
River Gauge Lake Albert Murray 0.61 m 26/05/2019 5:45 Not measured 247 GL 26/05/2019 5:45 Not measured Not measured Not measured Not measured Full data
River Gauge Lake Alexandrina Murray 0.54 m 26/05/2019 5:45 Not measured 1478 GL 26/05/2019 5:45 Not measured Not measured 993.7 μS/cm 26/05/2019 16:45 Not measured Full data
Storage Lake Victoria Murray 22.87 m 26/05/2019 16:45 Not measured 234 GL 26/05/2019 16:45 Not measured 15.3°C 26/05/2019 16:45 154.5 μS/cm 26/05/2019 16:45 Not measured Full data
Weirs Lock 1 Downstream Murray 0.52 m 26/05/2019 16:45 Not measured Not measured 2688.3 ML/d24/05/2019 7:45 Not measured Not measured Not measured Full data
Weirs Lock 1 Upstream Murray 3.22 m 26/05/2019 16:45 Not measured Not measured Not measured 15.0°C 26/05/2019 16:45 245.2 μS/cm 26/05/2019 16:45 Not measured Full data
Weirs Lock 2 Downstream Murray 3.3 m 26/05/2019 16:45 Not measured Not measured Not measured Not measured Not measured Not measured Full data
Weirs Lock 2 Upstream Murray 6.13 m 26/05/2019 16:45 Not measured Not measured Not measured 15.2°C 26/05/2019 16:45 250.1 μS/cm 26/05/2019 16:45 Not measured Full data
Weirs Lock 3 Downstream Murray 6.28 m 26/05/2019 16:45 Not measured Not measured Not measured Not measured Not measured Not measured Full data
Weirs Lock 3 Upstream Murray 9.86 m 26/05/2019 16:45 Not measured Not measured Not measured Not measured Not measured Not measured Full data
Weirs Lock 4 Downstream Murray 10.21 m 26/05/2019 16:45 Not measured Not measured Not measured Not measured Not measured Not measured Full data
Weirs Lock 4 Upstream Murray 13.26 m 26/05/2019 16:45 Not measured Not measured Not measured Not measured Not measured Not measured Full data
Weirs Lock 5 Downstream Murray 13.32 m 26/05/2019 16:45 Not measured Not measured Not measured Not measured Not measured Not measured Full data
Weirs Lock 5 Upstream Murray 16.4 m 26/05/2019 16:45 Not measured Not measured Not measured 15.6°C 26/05/2019 16:45 200.9 μS/cm 26/05/2019 16:45 Not measured Full data
Weirs Lock 6 Downstream Murray 16.37 m 26/05/2019 16:45 Not measured Not measured Not measured Not measured Not measured Not measured Full data
Weirs Lock 6 Upstream Murray 19.3 m 26/05/2019 16:45 Not measured Not measured Not measured 15.3°C 26/05/2019 16:45 189.9 μS/cm 26/05/2019 16:45 Not measured Full data
Weirs Lock 7 Downstream Murray 19.97 m 26/05/2019 16:45 Not measured Not measured Not measured Not measured Not measured Not measured Full data
Weirs Lock 7 Upstream Murray 22.04 m 26/05/2019 16:45 Not measured Not measured Not measured 16.2°C 26/05/2019 16:45 111.0 μS/cm 26/05/2019 16:45 Not measured Full data
Weirs Lock 8 Upstream Murray 23.78 m 26/05/2019 16:45 Not measured Not measured Not measured 16.1°C 26/05/2019 16:45 105.0 μS/cm 26/05/2019 16:45 Not measured Full data
Weirs Lock 9 Downstream Murray 23.82 m 26/05/2019 16:45 Not measured Not measured Not measured Not measured Not measured Not measured Full data
Weirs Lock 9 Upstream Murray 27.31 m 26/05/2019 16:45 Not measured Not measured Not measured 16.0°C 26/05/2019 16:45 100.8 μS/cm 26/05/2019 16:45 Not measured Full data
River Gauge McCoy Bridge Goulburn 1.49 m 26/05/2019 17:45 952 ML/Day 26/05/2019 17:45 Not measured Not measured 12.7°C 26/05/2019 17:45 67.3 μS/cm 26/05/2019 17:45 Not measured Full data
Storage Menindee Lakes Darling Not measured Not measured 16 GL 24/05/2019 7:45 Not measured Not measured Not measured Not measured Full data
Weirs Mildura Weir downstream Murray 30.99 m 26/05/2019 17:45 Not measured Not measured Not measured 15.7°C 26/05/2019 17:45 97.4 μS/cm 26/05/2019 17:45 Not measured Full data
River Gauge Morgan Downstream Murray Not measured Not measured Not measured 2441.4 ML/d26/05/2019 16:45 Not measured 245.4 μS/cm 26/05/2019 15:45 Not measured Full data
River Gauge Mulwala Canal Murray Not measured Not measured Not measured 0.0 ML/d26/05/2019 8:45 Not measured Not measured Not measured Full data
River Gauge Mundoo Barrage Murray 0.61 m 24/05/2019 7:45 Not measured Not measured Not measured Not measured Not measured Not measured Full data
River Gauge Murray Bridge Murray 0.6 m 26/05/2019 16:45 Not measured Not measured Not measured 15.2°C 26/05/2019 16:45 258.9 μS/cm 26/05/2019 16:45 Not measured Full data
River Gauge Peechelba Ovens 126.34 m 26/05/2019 17:45 386 ML/Day 26/05/2019 17:45 Not measured Not measured 12.0°C 26/05/2019 17:45 57.8 μS/cm 26/05/2019 17:45 Not measured Full data
River Gauge Pinegrove Murray 1.06 m 26/05/2019 18:00 186 ML/Day 26/05/2019 18:00 Not measured Not measured 10.8°C 26/05/2019 18:00 93.4 μS/cm 26/05/2019 18:00 2.0 mm 26/05/2019 9:00 Full data
River Gauge Redcliffs Murray Not measured Not measured Not measured Not measured Not measured 93.8 μS/cm 26/05/2019 17:45 Not measured Full data
River Gauge Rochester Campaspe 1.63 m 26/05/2019 17:45 44 ML/Day 26/05/2019 17:45 Not measured Not measured 13.3°C 26/05/2019 17:45 690.9 μS/cm 26/05/2019 17:45 4.2 mm 26/05/2019 9:00 Full data
River Gauge Rufus River Murray 20.38 m 24/05/2019 7:45 Not measured Not measured 2107.2 ML/d24/05/2019 7:45 Not measured 183.1 μS/cm 26/05/2019 15:45 Not measured Full data
Weirs Steven's Weir Downstream Wakool 0.81 m 26/05/2019 17:45 512 ML/Day 26/05/2019 17:45 Not measured Not measured 13.6°C 26/05/2019 17:45 67.3 μS/cm 26/05/2019 17:45 Not measured Full data
Weirs Steven's Weir Upstream Wakool 4.15 m 26/05/2019 17:45 Not measured Not measured Not measured Not measured Not measured Not measured Full data
River Gauge Stoney Crossing Murray 1.41 m 26/05/2019 17:45 455 ML/Day 26/05/2019 17:45 Not measured 455.5 ML/d26/05/2019 7:45 14.5°C 26/05/2019 17:45 201.5 μS/cm 26/05/2019 17:45 Not measured Full data
River Gauge Swan Hill Murray 1.03 m 26/05/2019 17:45 4746 ML/Day 26/05/2019 17:45 Not measured Not measured 13.7°C 26/05/2019 17:45 66.5 μS/cm 26/05/2019 17:45 Not measured Full data
River Gauge Tallandoon Mitta 1.44 m 26/05/2019 17:45 563 ML/Day 26/05/2019 17:45 Not measured Not measured 11.3°C 26/05/2019 17:45 52.0 μS/cm 26/05/2019 17:45 Not measured Full data
River Gauge Tauwitchere Barrage Murray 0.5 m 26/05/2019 16:45 Not measured Not measured Not measured Not measured Not measured Not measured Full data
River Gauge Tocumwal Murray 1.27 m 25/05/2019 18:45 3898 ML/Day 25/05/2019 18:45 Not measured Not measured 14.3°C 25/05/2019 18:45 41.6 μS/cm 25/05/2019 18:45 Not measured Full data
River Gauge Torrumbarry Headworks Murray 83.99 m 26/05/2019 17:45 Not measured Not measured 395.7 ML/d26/05/2019 17:45 Not measured Not measured Not measured Full data
Weirs Torrumbarry Weir Downstream Murray 1.47 m 26/05/2019 17:45 3708 ML/Day 26/05/2019 17:45 Not measured Not measured 13.1°C 26/05/2019 17:45 81.2 μS/cm 26/05/2019 17:45 Not measured Full data
Weirs Torrumbarry Weir Upstream Murray 85.75 m 26/05/2019 17:30 Not measured 35 GL 26/05/2019 7:45 Not measured 13.0°C 24/05/2019 8:45 80.1 μS/cm 26/05/2019 9:45 0.0 mm 24/05/2019 9:00 Full data
River Gauge Wakool Canal Wakool -0.06 m 26/05/2019 17:45 Not measured Not measured 0.0 ML/d26/05/2019 8:45 Not measured Not measured Not measured Full data
River Gauge Wakool Junction Murray 2.82 m 26/05/2019 17:45 6951 ML/Day 26/05/2019 17:45 Not measured Not measured 14.0°C 26/05/2019 17:45 80.2 μS/cm 26/05/2019 17:45 Not measured Full data
River Gauge Weir 32 Upstream Darling 1.03 m 26/05/2019 17:45 1 ML/Day 26/05/2019 17:45 Not measured Not measured 17.0°C 26/05/2019 17:45 1261.8 μS/cm 26/05/2019 17:45 Not measured Full data
Weirs Wentworth Weir Murray 27.61 m 26/05/2019 17:45 Not measured Not measured 6717.0 ML/d26/05/2019 8:45 Not measured 98.0 μS/cm 24/05/2019 7:45 0.0 mm 31/01/2019 9:00 Full data
River Gauge Wilcania Darling -0.17 m 26/05/2019 17:45 1 ML/Day 26/05/2019 17:45 Not measured Not measured 11.8°C 26/05/2019 17:45 0.0 μS/cm 26/05/2019 17:45 Not measured Full data
River Gauge Yarrawonga Main Channel Murray 123.08 m 10/05/2019 6:45 Not measured Not measured 30.1 ML/d26/05/2019 8:45 Not measured Not measured Not measured Full data
Weirs Yarrawonga Weir Downstream Murray 0.74 m 26/05/2019 18:00 4057 ML/Day 26/05/2019 18:00 Not measured Not measured 13.9°C 26/05/2019 18:00 49.0 μS/cm 26/05/2019 18:00 Not measured Full data
Weirs Yarrawonga Weir Upstream Murray 124.75 m 26/05/2019 17:45 Not measured Not measured Not measured Not measured Not measured 0.2 mm 26/05/2019 9:00 Full data